Aérodrome :
LOGIN :

S'inscrire | Disclaimer

   EN    FR    IT 

 










Légende :    VFR   VFR Marginal   IFR   IFR Intensif   IFR Très Intensif
Visi : 
Plafond : 
>= 8 km
>= 3000ft
5 à 8 km
1000 à 3000 ft
1500m à 5 km
500 à 1000 ft
800 à 1500m
200 à 500 ft
< 800m
< 200 ft
Symboles :   Orages  Brouillard  Fortes neiges  Fortes précipitations  Vent > 20 kt
SIGMETs :   Divers  Orages  Givrage  Turbulence  Onde Orograph.  Cendres Volcan.






- Altitude de l'aérodrome : 412 ft
- Code IATA : ORE


LFOJ - Orleans

DERNIER METAR :
  • 141200Z AUTO 25014KT 9999 BKN039 BKN049 OVC060 20/14 Q1007 TEMPO 22020G30KT 4000 SHRA BKN040TCU

METARs EXPIRÉS :
  • 141130Z AUTO 22016KT 9999 BKN038 BKN056 20/12 Q1008 TEMPO 22020G30KT 4000 SHRA BKN040TCU
  • 141100Z AUTO 23015KT 9999 SCT036 SCT042 BKN056 20/12 Q1008 NOSIG
  • 141030Z AUTO 23016KT 9999 FEW032 BKN041 OVC052 19/12 Q1009 NOSIG
  • 141000Z AUTO 24019KT 9999 SCT031 BKN042 OVC050 18/12 Q1009 NOSIG
  • 140930Z AUTO 23016KT 9999 FEW024 SCT031 OVC047 18/13 Q1009 NOSIG
  • 140900Z AUTO 24017KT 9999 OVC023 17/13 Q1009 NOSIG
  • 140830Z AUTO 25016KT 9999 BKN019 BKN027 OVC050 17/13 Q1009 NOSIG
  • 140800Z AUTO 24015KT 9999 BKN016 BKN024 OVC048 17/14 Q1009 TEMPO BKN012
  • 140730Z AUTO 23012KT 9999 SCT015 BKN041 OVC048 16/14 Q1008 TEMPO BKN012

TAF TAF LFOJ
Valide du 14 à 09h jusqu'au 15 à 09h UTC


140800Z 1409/1509 22012KT 9999 BKN030 BKN040 TX21/1414Z TN09/1504Z
TEMPO 1413/1420 22020G30KT 4000 SHRA BKN040TCU
TEMPO 1423/1501 24018G28KT 4000 SHRA BKN040TCU



MET'MAP, la Météo Aéronautique d'un coup d'oeil ! - Copyright ORBIFLY Décembre 2007 - Disclaimer

ORBIFLY MET'MAP TEAM :

Programmation & Développement : Alexandra Zaïnal
Sur une idée originale de : Baudouin d'Aumeries
Soutien technique & logistique : Manuel Goepfert
Assistance : Marc-Olivier Méhu




SOURCES & CREDITS :

   NOAA